sensor_id;sensor_type;location;lat;lon;timestamp;temperature;humidity
53208;DHT22;39093;52.788;6.940;2023-11-18T00:01:06;2.90;99.90
53208;DHT22;39093;52.788;6.940;2023-11-18T00:03:35;3.00;99.90
53208;DHT22;39093;52.788;6.940;2023-11-18T00:06:02;2.90;99.90
53208;DHT22;39093;52.788;6.940;2023-11-18T00:08:30;2.90;99.90
53208;DHT22;39093;52.788;6.940;2023-11-18T00:10:58;2.90;99.90
53208;DHT22;39093;52.788;6.940;2023-11-18T00:13:25;3.00;99.90
53208;DHT22;39093;52.788;6.940;2023-11-18T00:15:55;2.80;99.90
53208;DHT22;39093;52.788;6.940;2023-11-18T00:18:23;3.10;99.90
53208;DHT22;39093;52.788;6.940;2023-11-18T00:20:50;2.80;99.90
53208;DHT22;39093;52.788;6.940;2023-11-18T00:23:17;2.90;99.90
53208;DHT22;39093;52.788;6.940;2023-11-18T00:25:47;2.70;99.90
53208;DHT22;39093;52.788;6.940;2023-11-18T00:28:14;2.70;99.90
53208;DHT22;39093;52.788;6.940;2023-11-18T00:30:41;2.70;99.90
53208;DHT22;39093;52.788;6.940;2023-11-18T00:33:08;2.70;99.90
53208;DHT22;39093;52.788;6.940;2023-11-18T00:35:35;2.70;99.90
53208;DHT22;39093;52.788;6.940;2023-11-18T00:38:02;2.70;99.90
53208;DHT22;39093;52.788;6.940;2023-11-18T00:40:30;2.60;99.90
53208;DHT22;39093;52.788;6.940;2023-11-18T00:42:57;2.60;99.90
53208;DHT22;39093;52.788;6.940;2023-11-18T00:45:24;2.60;99.90
53208;DHT22;39093;52.788;6.940;2023-11-18T00:47:51;2.60;99.90
53208;DHT22;39093;52.788;6.940;2023-11-18T00:50:18;2.60;99.90
53208;DHT22;39093;52.788;6.940;2023-11-18T00:52:45;2.60;99.90
53208;DHT22;39093;52.788;6.940;2023-11-18T00:55:16;2.50;99.90
53208;DHT22;39093;52.788;6.940;2023-11-18T00:57:46;2.50;99.90
53208;DHT22;39093;52.788;6.940;2023-11-18T01:00:14;2.50;99.90
53208;DHT22;39093;52.788;6.940;2023-11-18T01:02:43;2.40;99.90
53208;DHT22;39093;52.788;6.940;2023-11-18T01:05:10;2.50;99.90
53208;DHT22;39093;52.788;6.940;2023-11-18T01:07:38;2.40;99.90
53208;DHT22;39093;52.788;6.940;2023-11-18T01:10:05;2.40;99.90
53208;DHT22;39093;52.788;6.940;2023-11-18T01:12:34;2.40;99.90
53208;DHT22;39093;52.788;6.940;2023-11-18T01:15:01;2.40;99.90
53208;DHT22;39093;52.788;6.940;2023-11-18T01:17:29;2.40;99.90
53208;DHT22;39093;52.788;6.940;2023-11-18T01:19:58;2.40;99.90
53208;DHT22;39093;52.788;6.940;2023-11-18T01:22:25;2.40;99.90
53208;DHT22;39093;52.788;6.940;2023-11-18T01:24:52;2.40;99.90
53208;DHT22;39093;52.788;6.940;2023-11-18T01:27:19;2.80;99.90
53208;DHT22;39093;52.788;6.940;2023-11-18T01:29:47;2.40;99.90
53208;DHT22;39093;52.788;6.940;2023-11-18T01:32:14;2.40;99.90
53208;DHT22;39093;52.788;6.940;2023-11-18T01:34:41;2.40;99.90
53208;DHT22;39093;52.788;6.940;2023-11-18T01:37:10;2.40;99.90
53208;DHT22;39093;52.788;6.940;2023-11-18T01:39:37;2.40;99.90
53208;DHT22;39093;52.788;6.940;2023-11-18T01:42:04;2.40;99.90
53208;DHT22;39093;52.788;6.940;2023-11-18T01:44:31;2.30;99.90
53208;DHT22;39093;52.788;6.940;2023-11-18T01:47:01;2.30;99.90
53208;DHT22;39093;52.788;6.940;2023-11-18T01:49:30;2.30;99.90
53208;DHT22;39093;52.788;6.940;2023-11-18T01:51:57;2.30;99.90
53208;DHT22;39093;52.788;6.940;2023-11-18T01:54:24;2.40;99.90
53208;DHT22;39093;52.788;6.940;2023-11-18T01:56:51;2.40;99.90
53208;DHT22;39093;52.788;6.940;2023-11-18T01:59:18;2.40;99.90
53208;DHT22;39093;52.788;6.940;2023-11-18T02:01:50;2.40;99.90
53208;DHT22;39093;52.788;6.940;2023-11-18T02:04:19;2.40;99.90
53208;DHT22;39093;52.788;6.940;2023-11-18T02:06:50;2.40;99.90
53208;DHT22;39093;52.788;6.940;2023-11-18T02:09:20;2.50;99.90
53208;DHT22;39093;52.788;6.940;2023-11-18T02:12:35;2.40;99.90
53208;DHT22;39093;52.788;6.940;2023-11-18T02:15:05;2.00;99.90
53208;DHT22;39093;52.788;6.940;2023-11-18T02:17:41;2.40;99.90
53208;DHT22;39093;52.788;6.940;2023-11-18T02:20:10;2.50;99.90
53208;DHT22;39093;52.788;6.940;2023-11-18T02:22:43;2.40;99.90
53208;DHT22;39093;52.788;6.940;2023-11-18T02:25:15;2.50;99.90
53208;DHT22;39093;52.788;6.940;2023-11-18T02:27:42;2.50;99.90
53208;DHT22;39093;52.788;6.940;2023-11-18T02:30:11;2.50;99.90
53208;DHT22;39093;52.788;6.940;2023-11-18T02:33:03;2.50;99.90
53208;DHT22;39093;52.788;6.940;2023-11-18T02:35:38;2.50;99.90
53208;DHT22;39093;52.788;6.940;2023-11-18T02:38:08;2.50;99.90
53208;DHT22;39093;52.788;6.940;2023-11-18T02:40:41;2.50;99.90
53208;DHT22;39093;52.788;6.940;2023-11-18T02:43:10;2.60;99.90
53208;DHT22;39093;52.788;6.940;2023-11-18T02:45:38;2.60;99.90
53208;DHT22;39093;52.788;6.940;2023-11-18T02:48:07;2.60;99.90
53208;DHT22;39093;52.788;6.940;2023-11-18T02:50:34;2.60;99.90
53208;DHT22;39093;52.788;6.940;2023-11-18T02:53:04;2.60;99.90
53208;DHT22;39093;52.788;6.940;2023-11-18T02:55:32;2.70;99.90
53208;DHT22;39093;52.788;6.940;2023-11-18T02:57:59;2.70;99.90
53208;DHT22;39093;52.788;6.940;2023-11-18T03:00:28;2.60;99.90
53208;DHT22;39093;52.788;6.940;2023-11-18T03:02:55;2.70;99.90
53208;DHT22;39093;52.788;6.940;2023-11-18T03:05:22;2.70;99.90
53208;DHT22;39093;52.788;6.940;2023-11-18T03:07:49;2.70;99.90
53208;DHT22;39093;52.788;6.940;2023-11-18T03:10:17;2.60;99.90
53208;DHT22;39093;52.788;6.940;2023-11-18T03:12:54;2.70;99.90
53208;DHT22;39093;52.788;6.940;2023-11-18T03:15:22;2.70;99.90
53208;DHT22;39093;52.788;6.940;2023-11-18T03:17:50;2.70;99.90
53208;DHT22;39093;52.788;6.940;2023-11-18T03:20:19;2.70;99.90
53208;DHT22;39093;52.788;6.940;2023-11-18T03:22:47;2.70;99.90
53208;DHT22;39093;52.788;6.940;2023-11-18T03:25:14;2.70;99.90
53208;DHT22;39093;52.788;6.940;2023-11-18T03:27:42;2.70;99.90
53208;DHT22;39093;52.788;6.940;2023-11-18T03:30:09;2.80;99.90
53208;DHT22;39093;52.788;6.940;2023-11-18T03:32:38;2.80;99.90
53208;DHT22;39093;52.788;6.940;2023-11-18T03:35:06;2.80;99.90
53208;DHT22;39093;52.788;6.940;2023-11-18T03:37:40;2.80;99.90
53208;DHT22;39093;52.788;6.940;2023-11-18T03:40:11;2.80;99.90
53208;DHT22;39093;52.788;6.940;2023-11-18T03:42:39;2.70;99.90
53208;DHT22;39093;52.788;6.940;2023-11-18T03:45:07;2.70;99.90
53208;DHT22;39093;52.788;6.940;2023-11-18T03:47:36;2.80;99.90
53208;DHT22;39093;52.788;6.940;2023-11-18T03:50:04;2.80;99.90
53208;DHT22;39093;52.788;6.940;2023-11-18T03:52:32;2.70;99.90
53208;DHT22;39093;52.788;6.940;2023-11-18T03:54:59;2.70;99.90
53208;DHT22;39093;52.788;6.940;2023-11-18T03:57:26;2.80;99.90
53208;DHT22;39093;52.788;6.940;2023-11-18T03:59:53;2.80;99.90
53208;DHT22;39093;52.788;6.940;2023-11-18T04:02:20;2.80;99.90
53208;DHT22;39093;52.788;6.940;2023-11-18T04:04:47;2.80;99.90
53208;DHT22;39093;52.788;6.940;2023-11-18T04:07:15;3.30;99.90
53208;DHT22;39093;52.788;6.940;2023-11-18T04:09:42;2.90;99.90
53208;DHT22;39093;52.788;6.940;2023-11-18T04:12:10;2.80;99.90
53208;DHT22;39093;52.788;6.940;2023-11-18T04:14:37;2.80;99.90
53208;DHT22;39093;52.788;6.940;2023-11-18T04:17:04;2.90;99.90
53208;DHT22;39093;52.788;6.940;2023-11-18T04:19:34;2.80;99.90
53208;DHT22;39093;52.788;6.940;2023-11-18T04:22:01;2.80;99.90
53208;DHT22;39093;52.788;6.940;2023-11-18T04:24:28;2.80;99.90
53208;DHT22;39093;52.788;6.940;2023-11-18T04:26:55;2.80;99.90
53208;DHT22;39093;52.788;6.940;2023-11-18T04:29:22;2.80;99.90
53208;DHT22;39093;52.788;6.940;2023-11-18T04:31:50;2.80;99.90
53208;DHT22;39093;52.788;6.940;2023-11-18T04:34:17;2.80;99.90
53208;DHT22;39093;52.788;6.940;2023-11-18T04:36:43;2.80;99.90
53208;DHT22;39093;52.788;6.940;2023-11-18T04:39:13;2.80;99.90
53208;DHT22;39093;52.788;6.940;2023-11-18T04:41:42;2.80;99.90
53208;DHT22;39093;52.788;6.940;2023-11-18T04:44:10;2.80;99.90
53208;DHT22;39093;52.788;6.940;2023-11-18T04:46:37;2.80;99.90
53208;DHT22;39093;52.788;6.940;2023-11-18T04:49:04;2.80;99.90
53208;DHT22;39093;52.788;6.940;2023-11-18T04:51:32;2.80;99.90
53208;DHT22;39093;52.788;6.940;2023-11-18T04:54:00;2.80;99.90
53208;DHT22;39093;52.788;6.940;2023-11-18T04:56:26;2.80;99.90
53208;DHT22;39093;52.788;6.940;2023-11-18T04:58:53;2.80;99.90
53208;DHT22;39093;52.788;6.940;2023-11-18T05:01:21;2.90;99.90
53208;DHT22;39093;52.788;6.940;2023-11-18T05:03:48;2.80;99.90
53208;DHT22;39093;52.788;6.940;2023-11-18T05:06:15;2.80;99.90
53208;DHT22;39093;52.788;6.940;2023-11-18T05:08:42;2.80;99.90
53208;DHT22;39093;52.788;6.940;2023-11-18T05:11:09;2.80;99.90
53208;DHT22;39093;52.788;6.940;2023-11-18T05:13:36;2.70;99.90
53208;DHT22;39093;52.788;6.940;2023-11-18T05:16:03;2.70;99.90
53208;DHT22;39093;52.788;6.940;2023-11-18T05:18:30;2.70;99.90
53208;DHT22;39093;52.788;6.940;2023-11-18T05:21:03;2.80;99.90
53208;DHT22;39093;52.788;6.940;2023-11-18T05:23:35;2.70;99.90
53208;DHT22;39093;52.788;6.940;2023-11-18T05:26:02;2.70;99.90
53208;DHT22;39093;52.788;6.940;2023-11-18T05:28:32;2.80;99.90
53208;DHT22;39093;52.788;6.940;2023-11-18T05:31:00;2.80;99.90
53208;DHT22;39093;52.788;6.940;2023-11-18T05:33:30;2.80;99.90
53208;DHT22;39093;52.788;6.940;2023-11-18T05:35:58;2.80;99.90
53208;DHT22;39093;52.788;6.940;2023-11-18T05:38:25;2.90;99.90
53208;DHT22;39093;52.788;6.940;2023-11-18T05:40:54;2.80;99.90
53208;DHT22;39093;52.788;6.940;2023-11-18T05:43:27;2.90;99.90
53208;DHT22;39093;52.788;6.940;2023-11-18T05:45:56;2.90;99.90
53208;DHT22;39093;52.788;6.940;2023-11-18T05:48:48;3.00;99.90
53208;DHT22;39093;52.788;6.940;2023-11-18T05:51:23;3.10;99.90
53208;DHT22;39093;52.788;6.940;2023-11-18T05:53:51;3.00;99.90
53208;DHT22;39093;52.788;6.940;2023-11-18T05:56:19;3.10;99.90
53208;DHT22;39093;52.788;6.940;2023-11-18T05:58:49;3.10;99.90
53208;DHT22;39093;52.788;6.940;2023-11-18T06:01:17;3.00;99.90
53208;DHT22;39093;52.788;6.940;2023-11-18T06:03:44;3.10;99.90
53208;DHT22;39093;52.788;6.940;2023-11-18T06:06:15;3.10;99.90
53208;DHT22;39093;52.788;6.940;2023-11-18T06:08:49;3.10;99.90
53208;DHT22;39093;52.788;6.940;2023-11-18T06:11:17;3.10;99.90
53208;DHT22;39093;52.788;6.940;2023-11-18T06:13:50;3.10;99.90
53208;DHT22;39093;52.788;6.940;2023-11-18T06:16:22;3.10;99.90
53208;DHT22;39093;52.788;6.940;2023-11-18T06:18:53;3.10;99.90
53208;DHT22;39093;52.788;6.940;2023-11-18T06:21:22;3.10;99.90
53208;DHT22;39093;52.788;6.940;2023-11-18T06:23:54;3.10;99.90
53208;DHT22;39093;52.788;6.940;2023-11-18T06:26:22;3.20;99.90
53208;DHT22;39093;52.788;6.940;2023-11-18T06:28:56;3.30;99.90
53208;DHT22;39093;52.788;6.940;2023-11-18T06:31:24;3.20;99.90
53208;DHT22;39093;52.788;6.940;2023-11-18T06:33:51;3.20;99.90
53208;DHT22;39093;52.788;6.940;2023-11-18T06:36:20;3.20;99.90
53208;DHT22;39093;52.788;6.940;2023-11-18T06:38:49;3.20;99.90
53208;DHT22;39093;52.788;6.940;2023-11-18T06:41:18;3.20;99.90
53208;DHT22;39093;52.788;6.940;2023-11-18T06:43:46;3.20;99.90
53208;DHT22;39093;52.788;6.940;2023-11-18T06:46:27;3.20;99.90
53208;DHT22;39093;52.788;6.940;2023-11-18T06:48:56;3.10;99.90
53208;DHT22;39093;52.788;6.940;2023-11-18T06:51:26;3.20;99.90
53208;DHT22;39093;52.788;6.940;2023-11-18T06:53:55;3.20;99.90
53208;DHT22;39093;52.788;6.940;2023-11-18T06:56:26;3.30;99.90
53208;DHT22;39093;52.788;6.940;2023-11-18T06:58:54;3.30;99.90
53208;DHT22;39093;52.788;6.940;2023-11-18T07:01:21;3.30;99.90
53208;DHT22;39093;52.788;6.940;2023-11-18T07:03:48;3.30;99.90
53208;DHT22;39093;52.788;6.940;2023-11-18T07:06:19;3.20;99.90
53208;DHT22;39093;52.788;6.940;2023-11-18T07:08:50;3.20;99.90
53208;DHT22;39093;52.788;6.940;2023-11-18T07:11:18;3.20;99.90
53208;DHT22;39093;52.788;6.940;2023-11-18T07:13:46;3.20;99.90
53208;DHT22;39093;52.788;6.940;2023-11-18T07:16:14;3.40;99.90
53208;DHT22;39093;52.788;6.940;2023-11-18T07:18:41;3.20;99.90
53208;DHT22;39093;52.788;6.940;2023-11-18T07:21:09;3.20;99.90
53208;DHT22;39093;52.788;6.940;2023-11-18T07:23:36;3.20;99.90
53208;DHT22;39093;52.788;6.940;2023-11-18T07:26:03;3.30;99.90
53208;DHT22;39093;52.788;6.940;2023-11-18T07:28:30;3.20;99.90
53208;DHT22;39093;52.788;6.940;2023-11-18T07:30:58;3.20;99.90
53208;DHT22;39093;52.788;6.940;2023-11-18T07:33:26;3.20;99.90
53208;DHT22;39093;52.788;6.940;2023-11-18T07:35:53;3.20;99.90
53208;DHT22;39093;52.788;6.940;2023-11-18T07:38:21;3.30;99.90
53208;DHT22;39093;52.788;6.940;2023-11-18T07:40:49;3.40;99.90
53208;DHT22;39093;52.788;6.940;2023-11-18T07:43:16;3.30;99.90
53208;DHT22;39093;52.788;6.940;2023-11-18T07:45:43;3.30;99.90
53208;DHT22;39093;52.788;6.940;2023-11-18T07:48:10;3.30;99.90
53208;DHT22;39093;52.788;6.940;2023-11-18T07:50:40;3.30;99.90
53208;DHT22;39093;52.788;6.940;2023-11-18T07:53:13;3.30;99.90
53208;DHT22;39093;52.788;6.940;2023-11-18T07:55:40;3.30;99.90
53208;DHT22;39093;52.788;6.940;2023-11-18T07:58:08;3.40;99.90
53208;DHT22;39093;52.788;6.940;2023-11-18T08:00:41;3.40;99.90
53208;DHT22;39093;52.788;6.940;2023-11-18T08:03:09;3.40;99.90
53208;DHT22;39093;52.788;6.940;2023-11-18T08:05:42;3.40;99.90
53208;DHT22;39093;52.788;6.940;2023-11-18T08:08:12;3.40;99.90
53208;DHT22;39093;52.788;6.940;2023-11-18T08:10:41;3.40;99.90
53208;DHT22;39093;52.788;6.940;2023-11-18T08:13:09;3.40;99.90
53208;DHT22;39093;52.788;6.940;2023-11-18T08:15:40;3.40;99.90
53208;DHT22;39093;52.788;6.940;2023-11-18T08:18:08;3.40;99.90
53208;DHT22;39093;52.788;6.940;2023-11-18T08:20:37;3.50;99.90
53208;DHT22;39093;52.788;6.940;2023-11-18T08:23:05;3.40;99.90
53208;DHT22;39093;52.788;6.940;2023-11-18T08:25:34;3.50;99.90
53208;DHT22;39093;52.788;6.940;2023-11-18T08:28:01;3.40;99.90
53208;DHT22;39093;52.788;6.940;2023-11-18T08:30:29;3.40;99.90
53208;DHT22;39093;52.788;6.940;2023-11-18T08:32:56;3.40;99.90
53208;DHT22;39093;52.788;6.940;2023-11-18T08:35:24;3.40;99.90
53208;DHT22;39093;52.788;6.940;2023-11-18T08:37:52;3.40;99.90
53208;DHT22;39093;52.788;6.940;2023-11-18T08:40:19;3.40;99.90
53208;DHT22;39093;52.788;6.940;2023-11-18T08:42:50;3.40;99.90
53208;DHT22;39093;52.788;6.940;2023-11-18T08:47:46;3.40;99.90
53208;DHT22;39093;52.788;6.940;2023-11-18T08:50:16;3.50;99.90
53208;DHT22;39093;52.788;6.940;2023-11-18T08:52:47;3.50;99.90
53208;DHT22;39093;52.788;6.940;2023-11-18T08:55:15;3.50;99.90
53208;DHT22;39093;52.788;6.940;2023-11-18T08:57:45;3.50;99.90
53208;DHT22;39093;52.788;6.940;2023-11-18T09:00:26;3.50;99.90
53208;DHT22;39093;52.788;6.940;2023-11-18T09:03:12;3.60;99.90
53208;DHT22;39093;52.788;6.940;2023-11-18T09:05:56;3.60;99.90
53208;DHT22;39093;52.788;6.940;2023-11-18T09:10:51;3.60;99.90
53208;DHT22;39093;52.788;6.940;2023-11-18T09:13:23;3.70;99.90
53208;DHT22;39093;52.788;6.940;2023-11-18T09:15:59;3.70;99.90
53208;DHT22;39093;52.788;6.940;2023-11-18T09:18:30;3.90;99.90
53208;DHT22;39093;52.788;6.940;2023-11-18T09:20:59;3.80;99.90
53208;DHT22;39093;52.788;6.940;2023-11-18T09:23:30;3.80;99.90
53208;DHT22;39093;52.788;6.940;2023-11-18T09:25:58;3.80;99.90
53208;DHT22;39093;52.788;6.940;2023-11-18T09:28:27;3.90;99.90
53208;DHT22;39093;52.788;6.940;2023-11-18T09:30:57;4.00;99.90
53208;DHT22;39093;52.788;6.940;2023-11-18T09:33:25;3.90;99.90
53208;DHT22;39093;52.788;6.940;2023-11-18T09:35:56;3.90;99.90
53208;DHT22;39093;52.788;6.940;2023-11-18T09:40:57;4.00;99.90
53208;DHT22;39093;52.788;6.940;2023-11-18T09:43:29;4.00;99.90
53208;DHT22;39093;52.788;6.940;2023-11-18T09:46:07;4.10;99.90
53208;DHT22;39093;52.788;6.940;2023-11-18T09:48:44;4.10;99.90
53208;DHT22;39093;52.788;6.940;2023-11-18T09:51:22;4.10;99.90
53208;DHT22;39093;52.788;6.940;2023-11-18T09:53:53;4.20;99.90
53208;DHT22;39093;52.788;6.940;2023-11-18T09:59:32;4.30;99.90
53208;DHT22;39093;52.788;6.940;2023-11-18T10:02:03;4.30;99.90
53208;DHT22;39093;52.788;6.940;2023-11-18T10:04:40;4.30;99.90
53208;DHT22;39093;52.788;6.940;2023-11-18T10:07:09;4.40;99.90
53208;DHT22;39093;52.788;6.940;2023-11-18T10:09:38;4.40;99.90
53208;DHT22;39093;52.788;6.940;2023-11-18T10:12:09;4.40;99.90
53208;DHT22;39093;52.788;6.940;2023-11-18T10:14:41;4.60;99.90
53208;DHT22;39093;52.788;6.940;2023-11-18T10:17:10;4.80;99.90
53208;DHT22;39093;52.788;6.940;2023-11-18T10:19:54;4.50;99.90
53208;DHT22;39093;52.788;6.940;2023-11-18T10:22:26;4.50;99.90
53208;DHT22;39093;52.788;6.940;2023-11-18T10:24:55;4.50;99.90
53208;DHT22;39093;52.788;6.940;2023-11-18T10:27:26;4.50;99.90
53208;DHT22;39093;52.788;6.940;2023-11-18T10:30:04;4.50;99.90
53208;DHT22;39093;52.788;6.940;2023-11-18T10:32:32;4.60;99.90
53208;DHT22;39093;52.788;6.940;2023-11-18T10:35:06;4.60;99.90
53208;DHT22;39093;52.788;6.940;2023-11-18T10:37:37;4.50;99.90
53208;DHT22;39093;52.788;6.940;2023-11-18T10:40:11;4.60;99.90
53208;DHT22;39093;52.788;6.940;2023-11-18T10:42:41;4.70;99.90
53208;DHT22;39093;52.788;6.940;2023-11-18T10:45:09;4.70;99.90
53208;DHT22;39093;52.788;6.940;2023-11-18T10:47:42;4.80;99.90
53208;DHT22;39093;52.788;6.940;2023-11-18T10:50:09;4.70;99.90
53208;DHT22;39093;52.788;6.940;2023-11-18T10:52:37;4.60;99.90
53208;DHT22;39093;52.788;6.940;2023-11-18T10:55:08;4.70;99.90
53208;DHT22;39093;52.788;6.940;2023-11-18T10:57:40;4.60;99.90
53208;DHT22;39093;52.788;6.940;2023-11-18T11:00:10;4.60;99.90
53208;DHT22;39093;52.788;6.940;2023-11-18T11:02:41;4.60;99.90
53208;DHT22;39093;52.788;6.940;2023-11-18T11:05:09;4.70;99.90
53208;DHT22;39093;52.788;6.940;2023-11-18T11:07:48;4.80;99.90
53208;DHT22;39093;52.788;6.940;2023-11-18T11:10:16;4.70;99.90
53208;DHT22;39093;52.788;6.940;2023-11-18T11:12:50;4.70;99.90
53208;DHT22;39093;52.788;6.940;2023-11-18T11:15:25;4.90;99.90
53208;DHT22;39093;52.788;6.940;2023-11-18T11:18:05;5.00;99.90
53208;DHT22;39093;52.788;6.940;2023-11-18T11:20:47;4.70;99.90
53208;DHT22;39093;52.788;6.940;2023-11-18T11:23:21;4.80;99.90
53208;DHT22;39093;52.788;6.940;2023-11-18T11:28:54;4.70;99.90
53208;DHT22;39093;52.788;6.940;2023-11-18T11:31:30;4.70;99.90
53208;DHT22;39093;52.788;6.940;2023-11-18T11:34:03;4.90;99.90
53208;DHT22;39093;52.788;6.940;2023-11-18T11:36:50;4.70;99.90
53208;DHT22;39093;52.788;6.940;2023-11-18T11:39:19;4.80;99.90
53208;DHT22;39093;52.788;6.940;2023-11-18T11:41:53;4.80;99.90
53208;DHT22;39093;52.788;6.940;2023-11-18T11:44:24;4.90;99.90
53208;DHT22;39093;52.788;6.940;2023-11-18T11:46:59;4.80;99.90
53208;DHT22;39093;52.788;6.940;2023-11-18T11:49:41;5.10;99.90
53208;DHT22;39093;52.788;6.940;2023-11-18T11:52:29;4.90;99.90
53208;DHT22;39093;52.788;6.940;2023-11-18T11:55:19;5.00;99.90
53208;DHT22;39093;52.788;6.940;2023-11-18T11:57:51;4.90;99.90
53208;DHT22;39093;52.788;6.940;2023-11-18T12:00:24;4.90;99.90
53208;DHT22;39093;52.788;6.940;2023-11-18T12:02:53;5.10;99.90
53208;DHT22;39093;52.788;6.940;2023-11-18T12:05:26;5.00;99.90
53208;DHT22;39093;52.788;6.940;2023-11-18T12:07:55;5.00;99.90
53208;DHT22;39093;52.788;6.940;2023-11-18T12:10:32;5.00;99.90
53208;DHT22;39093;52.788;6.940;2023-11-18T12:15:54;5.00;99.90
53208;DHT22;39093;52.788;6.940;2023-11-18T12:18:24;5.00;99.90
53208;DHT22;39093;52.788;6.940;2023-11-18T12:20:51;5.00;99.90
53208;DHT22;39093;52.788;6.940;2023-11-18T12:23:22;5.00;99.90
53208;DHT22;39093;52.788;6.940;2023-11-18T12:25:51;5.00;99.90
53208;DHT22;39093;52.788;6.940;2023-11-18T12:28:25;5.10;99.90
53208;DHT22;39093;52.788;6.940;2023-11-18T12:30:57;5.10;99.90
53208;DHT22;39093;52.788;6.940;2023-11-18T12:43:02;5.10;99.90
53208;DHT22;39093;52.788;6.940;2023-11-18T12:46:00;5.10;99.90
53208;DHT22;39093;52.788;6.940;2023-11-18T12:48:34;5.10;99.90
53208;DHT22;39093;52.788;6.940;2023-11-18T12:51:04;5.10;99.90
53208;DHT22;39093;52.788;6.940;2023-11-18T12:53:36;5.10;99.90
53208;DHT22;39093;52.788;6.940;2023-11-18T12:56:03;5.10;99.90
53208;DHT22;39093;52.788;6.940;2023-11-18T12:58:31;5.10;99.90
53208;DHT22;39093;52.788;6.940;2023-11-18T13:01:00;5.10;99.90
53208;DHT22;39093;52.788;6.940;2023-11-18T13:03:29;5.30;99.90
53208;DHT22;39093;52.788;6.940;2023-11-18T13:05:57;5.20;99.90
53208;DHT22;39093;52.788;6.940;2023-11-18T13:08:24;5.20;99.90
53208;DHT22;39093;52.788;6.940;2023-11-18T13:10:51;5.10;99.90
53208;DHT22;39093;52.788;6.940;2023-11-18T13:13:19;5.30;99.90
53208;DHT22;39093;52.788;6.940;2023-11-18T13:15:46;5.10;99.90
53208;DHT22;39093;52.788;6.940;2023-11-18T13:18:17;5.10;99.90
53208;DHT22;39093;52.788;6.940;2023-11-18T13:20:54;5.30;99.90
53208;DHT22;39093;52.788;6.940;2023-11-18T13:23:22;5.10;99.90
53208;DHT22;39093;52.788;6.940;2023-11-18T13:25:49;5.10;99.90
53208;DHT22;39093;52.788;6.940;2023-11-18T13:28:17;5.20;99.90
53208;DHT22;39093;52.788;6.940;2023-11-18T13:30:44;5.10;99.90
53208;DHT22;39093;52.788;6.940;2023-11-18T13:33:12;5.10;99.90
53208;DHT22;39093;52.788;6.940;2023-11-18T13:35:39;5.10;99.90
53208;DHT22;39093;52.788;6.940;2023-11-18T13:38:06;5.10;99.90
53208;DHT22;39093;52.788;6.940;2023-11-18T13:40:44;5.10;99.90
53208;DHT22;39093;52.788;6.940;2023-11-18T13:43:11;5.30;99.90
53208;DHT22;39093;52.788;6.940;2023-11-18T13:45:40;5.30;99.90
53208;DHT22;39093;52.788;6.940;2023-11-18T13:48:07;5.20;99.90
53208;DHT22;39093;52.788;6.940;2023-11-18T13:50:35;5.30;99.90
53208;DHT22;39093;52.788;6.940;2023-11-18T13:53:06;5.50;99.90
53208;DHT22;39093;52.788;6.940;2023-11-18T13:55:33;5.30;99.90
53208;DHT22;39093;52.788;6.940;2023-11-18T13:58:00;5.30;99.90
53208;DHT22;39093;52.788;6.940;2023-11-18T14:00:28;5.60;99.90
53208;DHT22;39093;52.788;6.940;2023-11-18T14:02:58;5.30;99.90
53208;DHT22;39093;52.788;6.940;2023-11-18T14:05:26;5.30;99.90
53208;DHT22;39093;52.788;6.940;2023-11-18T14:07:54;5.30;99.90
53208;DHT22;39093;52.788;6.940;2023-11-18T14:10:22;5.30;99.90
53208;DHT22;39093;52.788;6.940;2023-11-18T14:13:14;5.30;99.90
53208;DHT22;39093;52.788;6.940;2023-11-18T14:15:43;5.30;99.90
53208;DHT22;39093;52.788;6.940;2023-11-18T14:18:12;5.30;99.90
53208;DHT22;39093;52.788;6.940;2023-11-18T14:20:41;5.40;99.90
53208;DHT22;39093;52.788;6.940;2023-11-18T14:23:08;5.40;99.90
53208;DHT22;39093;52.788;6.940;2023-11-18T14:25:35;5.40;99.90
53208;DHT22;39093;52.788;6.940;2023-11-18T14:28:03;5.40;99.90
53208;DHT22;39093;52.788;6.940;2023-11-18T14:30:31;5.50;99.90
53208;DHT22;39093;52.788;6.940;2023-11-18T14:32:58;5.50;99.90
53208;DHT22;39093;52.788;6.940;2023-11-18T14:35:26;5.50;99.90
53208;DHT22;39093;52.788;6.940;2023-11-18T14:37:56;5.50;99.90
53208;DHT22;39093;52.788;6.940;2023-11-18T14:40:23;5.50;99.90
53208;DHT22;39093;52.788;6.940;2023-11-18T14:42:50;5.60;99.90
53208;DHT22;39093;52.788;6.940;2023-11-18T14:45:19;5.60;99.90
53208;DHT22;39093;52.788;6.940;2023-11-18T14:47:46;5.50;99.90
53208;DHT22;39093;52.788;6.940;2023-11-18T14:50:18;5.50;99.90
53208;DHT22;39093;52.788;6.940;2023-11-18T14:52:49;5.50;99.90
53208;DHT22;39093;52.788;6.940;2023-11-18T14:55:18;5.60;99.90
53208;DHT22;39093;52.788;6.940;2023-11-18T14:57:45;5.50;99.90
53208;DHT22;39093;52.788;6.940;2023-11-18T15:00:13;5.50;99.90
53208;DHT22;39093;52.788;6.940;2023-11-18T15:02:49;5.60;99.90
53208;DHT22;39093;52.788;6.940;2023-11-18T15:05:20;5.90;99.90
53208;DHT22;39093;52.788;6.940;2023-11-18T15:07:49;5.80;99.90
53208;DHT22;39093;52.788;6.940;2023-11-18T15:10:18;5.60;99.90
53208;DHT22;39093;52.788;6.940;2023-11-18T15:12:50;5.60;99.90
53208;DHT22;39093;52.788;6.940;2023-11-18T15:15:22;5.60;99.90
53208;DHT22;39093;52.788;6.940;2023-11-18T15:17:49;5.70;99.90
53208;DHT22;39093;52.788;6.940;2023-11-18T15:20:17;5.70;99.90
53208;DHT22;39093;52.788;6.940;2023-11-18T15:22:50;5.70;99.90
53208;DHT22;39093;52.788;6.940;2023-11-18T15:25:17;5.70;99.90
53208;DHT22;39093;52.788;6.940;2023-11-18T15:27:44;5.90;99.90
53208;DHT22;39093;52.788;6.940;2023-11-18T15:30:13;5.90;99.90
53208;DHT22;39093;52.788;6.940;2023-11-18T15:32:41;5.80;99.90
53208;DHT22;39093;52.788;6.940;2023-11-18T15:35:10;5.80;99.90
53208;DHT22;39093;52.788;6.940;2023-11-18T15:37:38;5.80;99.90
53208;DHT22;39093;52.788;6.940;2023-11-18T15:40:09;6.10;99.90
53208;DHT22;39093;52.788;6.940;2023-11-18T15:42:39;5.90;99.90
53208;DHT22;39093;52.788;6.940;2023-11-18T15:45:10;5.90;99.90
53208;DHT22;39093;52.788;6.940;2023-11-18T15:47:39;5.90;99.90
53208;DHT22;39093;52.788;6.940;2023-11-18T15:50:07;5.90;99.90
53208;DHT22;39093;52.788;6.940;2023-11-18T15:52:36;5.90;99.90
53208;DHT22;39093;52.788;6.940;2023-11-18T15:55:03;6.00;99.90
53208;DHT22;39093;52.788;6.940;2023-11-18T15:57:41;6.00;99.90
53208;DHT22;39093;52.788;6.940;2023-11-18T16:00:09;6.10;99.90
53208;DHT22;39093;52.788;6.940;2023-11-18T16:02:44;6.00;99.90
53208;DHT22;39093;52.788;6.940;2023-11-18T16:05:12;6.00;99.90
53208;DHT22;39093;52.788;6.940;2023-11-18T16:07:45;6.00;99.90
53208;DHT22;39093;52.788;6.940;2023-11-18T16:10:13;6.10;99.90
53208;DHT22;39093;52.788;6.940;2023-11-18T16:12:49;6.20;99.90
53208;DHT22;39093;52.788;6.940;2023-11-18T16:15:20;6.20;99.90
53208;DHT22;39093;52.788;6.940;2023-11-18T16:17:49;6.30;99.90
53208;DHT22;39093;52.788;6.940;2023-11-18T16:20:18;6.30;99.90
53208;DHT22;39093;52.788;6.940;2023-11-18T16:22:47;6.20;99.90
53208;DHT22;39093;52.788;6.940;2023-11-18T16:25:19;6.20;99.90
53208;DHT22;39093;52.788;6.940;2023-11-18T16:27:47;6.20;99.90